Time;durP1;ratioP1;P1;durP2;ratioP2;P2;SDS_P1;SDS_P2;PMS_P1;PMS_P2;Temp;Humidity;BMP_temperature;BMP_pressure;BME280_temperature;BME280_humidity;BME280_pressure;Samples;Min_cycle;Max_cycle;Signal;HPM_P1;HPM_P2
2021/11/22 00:00:10;;;;;;;41.78;29.90;;;;;;;;;;5010397;28;20109;-79
2021/11/22 00:02:36;;;;;;;45.05;31.48;;;;;;;;;;5028814;28;20036;-80
2021/11/22 00:05:03;;;;;;;45.42;29.23;;;;;;;;;;5031506;28;20045;-79
2021/11/22 00:07:29;;;;;;;45.60;30.95;;;;;;;;;;5045244;28;20045;-80
2021/11/22 00:09:55;;;;;;;41.38;30.92;;;;;;;;;;5050701;28;20767;-79
2021/11/22 00:12:21;;;;;;;43.08;29.15;;;;;;;;;;5035500;28;20069;-79
2021/11/22 00:14:47;;;;;;;42.50;30.55;;;;;;;;;;5030327;28;20075;-80
2021/11/22 00:17:13;;;;;;;48.60;31.02;;;;;;;;;;5029269;28;20029;-79
2021/11/22 00:19:39;;;;;;;45.85;30.50;;;;;;;;;;5030236;28;20064;-79
2021/11/22 00:22:07;;;;;;;47.50;29.40;;;;;;;;;;5021283;28;20040;-80
2021/11/22 00:24:33;;;;;;;51.05;31.25;;;;;;;;;;5015218;28;20041;-80
2021/11/22 00:26:59;;;;;;;45.67;34.08;;;;;;;;;;5015092;28;20037;-80
2021/11/22 00:29:25;;;;;;;46.22;33.72;;;;;;;;;;5009056;28;20029;-80
2021/11/22 00:31:53;;;;;;;41.75;31.45;;;;;;;;;;5020533;28;20032;-79
2021/11/22 00:34:19;;;;;;;53.45;34.95;;;;;;;;;;5049779;28;20450;-79
2021/11/22 00:36:46;;;;;;;47.58;31.67;;;;;;;;;;5048921;28;20117;-80
2021/11/22 00:39:12;;;;;;;46.42;33.25;;;;;;;;;;5036747;28;20049;-79
2021/11/22 00:41:38;;;;;;;45.63;33.15;;;;;;;;;;5018131;28;20052;-79
2021/11/22 00:44:05;;;;;;;51.13;35.50;;;;;;;;;;5026724;28;20124;-80
2021/11/22 00:46:31;;;;;;;50.63;34.25;;;;;;;;;;5010144;28;20045;-79
2021/11/22 00:48:57;;;;;;;49.45;34.05;;;;;;;;;;5025099;28;20087;-79
2021/11/22 00:51:23;;;;;;;47.33;32.83;;;;;;;;;;5029374;28;20414;-80
2021/11/22 00:53:49;;;;;;;45.17;33.63;;;;;;;;;;5015947;28;20038;-79
2021/11/22 00:56:17;;;;;;;50.25;33.67;;;;;;;;;;5012261;28;20072;-80
2021/11/22 00:58:44;;;;;;;48.13;31.88;;;;;;;;;;5036513;28;20414;-80
2021/11/22 01:01:10;;;;;;;50.60;35.03;;;;;;;;;;5049332;28;20037;-79
2021/11/22 01:03:36;;;;;;;48.72;34.20;;;;;;;;;;5036327;28;20041;-79
2021/11/22 01:06:02;;;;;;;54.65;36.00;;;;;;;;;;5024690;28;20423;-80
2021/11/22 01:08:28;;;;;;;55.63;37.03;;;;;;;;;;5009855;28;20637;-79
2021/11/22 01:10:54;;;;;;;52.97;36.05;;;;;;;;;;5021055;28;20444;-80
2021/11/22 01:13:20;;;;;;;55.10;38.90;;;;;;;;;;5027822;28;20777;-79
2021/11/22 01:15:46;;;;;;;61.70;40.35;;;;;;;;;;5032129;28;20025;-80
2021/11/22 01:18:12;;;;;;;58.55;38.78;;;;;;;;;;5031615;28;20034;-79
2021/11/22 01:20:39;;;;;;;61.58;39.03;;;;;;;;;;5038785;28;20053;-80
2021/11/22 01:23:09;;;;;;;61.05;40.75;;;;;;;;;;5052580;28;20059;-80
2021/11/22 01:25:35;;;;;;;58.75;38.90;;;;;;;;;;5043017;28;20798;-80
2021/11/22 01:28:01;;;;;;;53.90;36.60;;;;;;;;;;5022165;28;20038;-80
2021/11/22 01:30:28;;;;;;;62.85;37.95;;;;;;;;;;5031194;28;20555;-79
2021/11/22 01:32:54;;;;;;;68.13;40.92;;;;;;;;;;5013132;28;20026;-79
2021/11/22 01:35:20;;;;;;;67.53;41.10;;;;;;;;;;5012948;28;20034;-80
2021/11/22 01:37:47;;;;;;;61.92;38.28;;;;;;;;;;5028935;28;20066;-80
2021/11/22 01:40:14;;;;;;;66.72;41.08;;;;;;;;;;5013011;28;20062;-80
2021/11/22 01:42:41;;;;;;;68.55;40.70;;;;;;;;;;5029081;28;20041;-80
2021/11/22 01:45:08;;;;;;;56.45;35.38;;;;;;;;;;5031244;28;20030;-79
2021/11/22 01:47:34;;;;;;;60.10;35.78;;;;;;;;;;5039677;28;20739;-79
2021/11/22 01:50:00;;;;;;;56.25;38.25;;;;;;;;;;5051262;28;20079;-79
2021/11/22 01:52:26;;;;;;;54.47;36.38;;;;;;;;;;5029518;28;20100;-80
2021/11/22 01:54:52;;;;;;;55.08;33.70;;;;;;;;;;5013049;28;20079;-79
2021/11/22 01:57:18;;;;;;;53.05;36.05;;;;;;;;;;5027474;28;20029;-79
2021/11/22 01:59:45;;;;;;;52.60;37.15;;;;;;;;;;5032860;28;20059;-80
2021/11/22 02:02:13;;;;;;;63.75;40.53;;;;;;;;;;5032503;28;20060;-79
2021/11/22 02:04:39;;;;;;;56.60;35.17;;;;;;;;;;5031116;28;20067;-79
2021/11/22 02:07:05;;;;;;;56.80;33.67;;;;;;;;;;5032208;28;20071;-80
2021/11/22 02:09:32;;;;;;;69.35;40.13;;;;;;;;;;5032252;28;20044;-80
2021/11/22 02:11:58;;;;;;;70.53;39.88;;;;;;;;;;5041461;28;20025;-80
2021/11/22 02:14:24;;;;;;;68.40;41.97;;;;;;;;;;5050853;28;20739;-79
2021/11/22 02:16:50;;;;;;;72.28;42.30;;;;;;;;;;5036412;28;20108;-80
2021/11/22 02:19:17;;;;;;;83.20;44.08;;;;;;;;;;5022632;28;20137;-80
2021/11/22 02:21:43;;;;;;;64.03;38.33;;;;;;;;;;5018987;28;20037;-80
2021/11/22 02:24:10;;;;;;;67.50;39.13;;;;;;;;;;5029124;28;20065;-80
2021/11/22 02:26:36;;;;;;;69.38;40.78;;;;;;;;;;5012217;28;20119;-80
2021/11/22 02:29:03;;;;;;;62.08;36.20;;;;;;;;;;5032085;28;20459;-80
2021/11/22 02:31:29;;;;;;;64.43;37.30;;;;;;;;;;5030465;28;20040;-80
2021/11/22 02:33:55;;;;;;;70.22;38.95;;;;;;;;;;5012480;28;20072;-80
2021/11/22 02:36:22;;;;;;;73.40;42.58;;;;;;;;;;5011941;28;20037;-80
2021/11/22 02:38:48;;;;;;;80.55;42.03;;;;;;;;;;5045180;28;20525;-80
2021/11/22 02:41:17;;;;;;;70.40;40.60;;;;;;;;;;5050171;28;20029;-80
2021/11/22 02:43:45;;;;;;;81.15;44.13;;;;;;;;;;5049670;28;20038;-80
2021/11/22 02:46:11;;;;;;;77.55;40.78;;;;;;;;;;5050076;28;20033;-80
2021/11/22 02:48:37;;;;;;;69.85;37.83;;;;;;;;;;5026350;28;20030;-80
2021/11/22 02:51:05;;;;;;;70.40;39.45;;;;;;;;;;5010521;28;20034;-80
2021/11/22 02:53:32;;;;;;;70.55;37.88;;;;;;;;;;5021956;28;20029;-80
2021/11/22 02:55:59;;;;;;;79.68;42.50;;;;;;;;;;5014905;28;20030;-80
2021/11/22 02:58:26;;;;;;;68.22;40.40;;;;;;;;;;5026598;28;20103;-80
2021/11/22 03:00:53;;;;;;;62.95;36.03;;;;;;;;;;5011629;28;20069;-79
2021/11/22 03:03:19;;;;;;;76.15;41.03;;;;;;;;;;5022602;28;20033;-79
2021/11/22 03:05:45;;;;;;;71.68;37.55;;;;;;;;;;5051486;28;20394;-80
2021/11/22 03:08:11;;;;;;;85.43;44.80;;;;;;;;;;5046186;28;20383;-80
2021/11/22 03:10:37;;;;;;;81.40;41.50;;;;;;;;;;5031030;28;20493;-80
2021/11/22 03:13:05;;;;;;;79.07;41.63;;;;;;;;;;5030482;28;20029;-80
2021/11/22 03:15:31;;;;;;;99.60;45.85;;;;;;;;;;5031331;28;20037;-80
2021/11/22 03:17:57;;;;;;;95.57;44.67;;;;;;;;;;5030860;28;20025;-79
2021/11/22 03:20:24;;;;;;;87.35;42.90;;;;;;;;;;5038931;28;20041;-80
2021/11/22 03:22:51;;;;;;;89.43;42.35;;;;;;;;;;5015334;28;20049;-80
2021/11/22 03:25:18;;;;;;;92.20;40.72;;;;;;;;;;5010893;28;20038;-80
2021/11/22 03:27:44;;;;;;;83.18;39.47;;;;;;;;;;5013801;28;20044;-80
2021/11/22 03:30:12;;;;;;;81.53;38.58;;;;;;;;;;5030429;28;20052;-81
2021/11/22 03:32:38;;;;;;;77.25;36.38;;;;;;;;;;5031249;28;20033;-80
2021/11/22 03:35:05;;;;;;;72.63;35.70;;;;;;;;;;5050738;28;20112;-80
2021/11/22 03:37:32;;;;;;;77.35;37.53;;;;;;;;;;5049750;28;20107;-79
2021/11/22 03:39:59;;;;;;;75.80;36.75;;;;;;;;;;5012587;28;20388;-80
2021/11/22 03:42:26;;;;;;;87.75;40.92;;;;;;;;;;5012748;28;20037;-80
2021/11/22 03:44:53;;;;;;;88.53;43.33;;;;;;;;;;5046570;28;20466;-79
2021/11/22 03:47:19;;;;;;;77.65;37.95;;;;;;;;;;5050257;28;20067;-80
2021/11/22 03:49:45;;;;;;;77.45;37.95;;;;;;;;;;5043761;28;20590;-79
2021/11/22 03:52:11;;;;;;;80.50;39.92;;;;;;;;;;5028855;28;20420;-80
2021/11/22 03:54:38;;;;;;;79.25;38.47;;;;;;;;;;5016966;28;20057;-80
2021/11/22 03:57:05;;;;;;;79.00;40.13;;;;;;;;;;5010319;28;20033;-80
2021/11/22 03:59:31;;;;;;;77.65;38.45;;;;;;;;;;5009052;28;20153;-80
2021/11/22 04:01:57;;;;;;;89.80;44.45;;;;;;;;;;5010468;28;20030;-80
2021/11/22 04:04:23;;;;;;;98.30;46.58;;;;;;;;;;5018826;28;20060;-80
2021/11/22 04:06:49;;;;;;;79.28;39.85;;;;;;;;;;5010252;28;20065;-80
2021/11/22 04:09:15;;;;;;;70.28;35.67;;;;;;;;;;5012157;28;20381;-79
2021/11/22 04:11:41;;;;;;;73.68;39.53;;;;;;;;;;5030035;28;20125;-80
2021/11/22 04:14:07;;;;;;;76.88;36.83;;;;;;;;;;5030212;28;20534;-80
2021/11/22 04:16:34;;;;;;;83.75;40.08;;;;;;;;;;5010279;28;20026;-80
2021/11/22 04:19:00;;;;;;;66.25;35.47;;;;;;;;;;5010462;28;20045;-80
2021/11/22 04:21:26;;;;;;;63.90;35.88;;;;;;;;;;5026896;28;20076;-80
2021/11/22 04:23:53;;;;;;;72.80;35.30;;;;;;;;;;5022445;28;20033;-79
2021/11/22 04:26:19;;;;;;;69.30;34.55;;;;;;;;;;5009672;28;20061;-80
2021/11/22 04:28:46;;;;;;;64.20;34.60;;;;;;;;;;5015001;28;20045;-79
2021/11/22 04:31:13;;;;;;;63.35;33.97;;;;;;;;;;5029276;28;20029;-80
2021/11/22 04:33:39;;;;;;;95.00;43.72;;;;;;;;;;5029660;28;20029;-80
2021/11/22 04:36:06;;;;;;;63.03;35.92;;;;;;;;;;5027554;28;20033;-80
2021/11/22 04:38:32;;;;;;;61.42;33.88;;;;;;;;;;5029509;28;20083;-80
2021/11/22 04:40:58;;;;;;;81.47;39.60;;;;;;;;;;5028969;28;20033;-80
2021/11/22 04:43:24;;;;;;;77.75;38.47;;;;;;;;;;5028009;28;20041;-80
2021/11/22 04:45:50;;;;;;;82.38;39.20;;;;;;;;;;5032119;28;20088;-80
2021/11/22 04:48:16;;;;;;;74.60;35.92;;;;;;;;;;5046783;28;20121;-80
2021/11/22 04:50:42;;;;;;;71.47;38.85;;;;;;;;;;5020933;28;20116;-80
2021/11/22 04:53:08;;;;;;;67.13;34.65;;;;;;;;;;5014164;28;20478;-80
2021/11/22 04:55:35;;;;;;;65.90;37.25;;;;;;;;;;5012014;28;20547;-80
2021/11/22 04:58:01;;;;;;;80.47;39.20;;;;;;;;;;5031611;28;20037;-80
2021/11/22 05:00:27;;;;;;;80.57;40.65;;;;;;;;;;5053539;28;20036;-80
2021/11/22 05:02:54;;;;;;;74.75;36.25;;;;;;;;;;5040076;28;20030;-80
2021/11/22 05:05:20;;;;;;;60.33;35.05;;;;;;;;;;5029171;28;20041;-80
2021/11/22 05:07:47;;;;;;;66.75;36.08;;;;;;;;;;5015661;28;20034;-80
2021/11/22 05:10:13;;;;;;;63.80;36.22;;;;;;;;;;5013532;28;20078;-80
2021/11/22 05:12:39;;;;;;;54.88;32.72;;;;;;;;;;5041102;28;20052;-80
2021/11/22 05:15:06;;;;;;;58.72;35.70;;;;;;;;;;5053078;28;20033;-80
2021/11/22 05:17:33;;;;;;;55.60;30.50;;;;;;;;;;5036513;28;20026;-80
2021/11/22 05:20:00;;;;;;;54.80;29.35;;;;;;;;;;5013539;28;20033;-80
2021/11/22 05:22:26;;;;;;;53.35;29.42;;;;;;;;;;5021998;28;20030;-80
2021/11/22 05:24:52;;;;;;;61.38;32.28;;;;;;;;;;5019915;28;20025;-80
2021/11/22 05:27:23;;;;;;;66.65;36.00;;;;;;;;;;5038700;28;20029;-79
2021/11/22 05:29:49;;;;;;;79.60;38.33;;;;;;;;;;5053331;28;20068;-80
2021/11/22 05:32:17;;;;;;;67.78;35.10;;;;;;;;;;5036190;28;20043;-80
2021/11/22 05:34:47;;;;;;;66.85;35.83;;;;;;;;;;5053061;28;20061;-80
2021/11/22 05:37:13;;;;;;;64.75;33.13;;;;;;;;;;5041564;28;20072;-80
2021/11/22 05:39:39;;;;;;;76.18;38.60;;;;;;;;;;5031361;28;20403;-80
2021/11/22 05:42:06;;;;;;;58.83;33.10;;;;;;;;;;5032500;28;20075;-80
2021/11/22 05:44:34;;;;;;;68.95;36.72;;;;;;;;;;5051464;28;20033;-80
2021/11/22 05:47:01;;;;;;;77.60;38.55;;;;;;;;;;5052486;28;20052;-80
2021/11/22 05:49:30;;;;;;;69.18;37.00;;;;;;;;;;5034284;28;20030;-80
2021/11/22 05:51:56;;;;;;;78.10;37.13;;;;;;;;;;5031518;28;20029;-80
2021/11/22 05:54:24;;;;;;;65.75;36.75;;;;;;;;;;5030829;28;20041;-80
2021/11/22 05:56:50;;;;;;;59.58;33.53;;;;;;;;;;5032474;28;20025;-80
2021/11/22 05:59:17;;;;;;;69.30;34.53;;;;;;;;;;5045763;28;20029;-80
2021/11/22 06:01:43;;;;;;;61.30;34.17;;;;;;;;;;5024419;28;20387;-80
2021/11/22 06:04:09;;;;;;;56.40;33.25;;;;;;;;;;5027712;28;20034;-80
2021/11/22 06:06:35;;;;;;;62.80;33.83;;;;;;;;;;5023573;28;20536;-80
2021/11/22 06:09:01;;;;;;;56.70;32.65;;;;;;;;;;5012393;28;20030;-80
2021/11/22 06:11:27;;;;;;;61.72;35.20;;;;;;;;;;5018973;28;20059;-80
2021/11/22 06:13:53;;;;;;;69.00;36.30;;;;;;;;;;5029614;28;20075;-80
2021/11/22 06:16:19;;;;;;;66.95;34.58;;;;;;;;;;5024513;28;20436;-80
2021/11/22 06:18:45;;;;;;;70.15;40.58;;;;;;;;;;5037032;28;20034;-80
2021/11/22 06:21:11;;;;;;;73.70;39.47;;;;;;;;;;5019413;28;20497;-79
2021/11/22 06:23:37;;;;;;;67.65;35.92;;;;;;;;;;5017925;28;20124;-80
2021/11/22 06:26:03;;;;;;;72.78;38.45;;;;;;;;;;5025872;28;20116;-79
2021/11/22 06:28:29;;;;;;;68.30;36.58;;;;;;;;;;5021940;28;20045;-81
2021/11/22 06:30:55;;;;;;;69.88;38.15;;;;;;;;;;5027338;28;20034;-80
2021/11/22 06:33:21;;;;;;;66.43;37.58;;;;;;;;;;5012283;28;20022;-80
2021/11/22 06:35:47;;;;;;;60.88;34.35;;;;;;;;;;5036183;28;20037;-81
2021/11/22 06:38:14;;;;;;;63.33;36.92;;;;;;;;;;5019198;28;20406;-81
2021/11/22 06:40:40;;;;;;;63.38;33.53;;;;;;;;;;5022916;28;20113;-80
2021/11/22 06:43:06;;;;;;;58.92;34.53;;;;;;;;;;5018565;28;20076;-81
2021/11/22 06:45:32;;;;;;;60.97;35.00;;;;;;;;;;5029209;28;20529;-81
2021/11/22 06:47:59;;;;;;;56.25;35.20;;;;;;;;;;5026145;28;20030;-80
2021/11/22 06:50:25;;;;;;;81.60;40.65;;;;;;;;;;5025919;28;20152;-81
2021/11/22 06:52:51;;;;;;;62.88;35.55;;;;;;;;;;5032046;28;20045;-81
2021/11/22 06:55:19;;;;;;;56.08;33.08;;;;;;;;;;5017675;28;20034;-81
2021/11/22 06:57:46;;;;;;;65.40;34.30;;;;;;;;;;5016100;28;20050;-81
2021/11/22 07:00:13;;;;;;;71.15;37.08;;;;;;;;;;5011182;28;20026;-81
2021/11/22 07:02:39;;;;;;;70.07;33.38;;;;;;;;;;5027471;28;20352;-81
2021/11/22 07:05:06;;;;;;;71.05;38.33;;;;;;;;;;5023477;28;20033;-81
2021/11/22 07:07:32;;;;;;;65.53;36.00;;;;;;;;;;5021860;28;20061;-82
2021/11/22 07:09:58;;;;;;;84.47;43.38;;;;;;;;;;5023332;28;20040;-81
2021/11/22 07:12:24;;;;;;;78.80;39.55;;;;;;;;;;5023271;28;20529;-83
2021/11/22 07:14:50;;;;;;;68.35;36.78;;;;;;;;;;5017941;28;20038;-82
2021/11/22 07:17:16;;;;;;;75.53;39.63;;;;;;;;;;5011074;28;20034;-81
2021/11/22 07:19:43;;;;;;;71.03;37.78;;;;;;;;;;5019162;28;20034;-81
2021/11/22 07:22:09;;;;;;;64.93;36.95;;;;;;;;;;5020076;28;20037;-80
2021/11/22 07:24:38;;;;;;;58.58;33.88;;;;;;;;;;5023457;28;20034;-81
2021/11/22 07:27:04;;;;;;;56.05;31.80;;;;;;;;;;5016679;28;20026;-81
2021/11/22 07:29:30;;;;;;;56.83;34.67;;;;;;;;;;5030603;28;20041;-81
2021/11/22 07:31:57;;;;;;;53.53;31.85;;;;;;;;;;5038845;28;20029;-81
2021/11/22 07:34:23;;;;;;;62.20;37.30;;;;;;;;;;5026099;28;20116;-81
2021/11/22 07:36:49;;;;;;;60.35;35.67;;;;;;;;;;5030057;28;20225;-81
2021/11/22 07:39:15;;;;;;;67.97;35.92;;;;;;;;;;5022121;28;20765;-81
2021/11/22 07:41:42;;;;;;;61.55;33.90;;;;;;;;;;5025874;28;20033;-81
2021/11/22 07:44:08;;;;;;;55.05;32.00;;;;;;;;;;5021976;28;20041;-81
2021/11/22 07:46:34;;;;;;;50.47;32.58;;;;;;;;;;5036124;28;20521;-81
2021/11/22 07:49:00;;;;;;;57.55;30.58;;;;;;;;;;5020716;28;20564;-81
2021/11/22 07:51:26;;;;;;;68.78;35.10;;;;;;;;;;5012303;28;20046;-81
2021/11/22 07:53:52;;;;;;;62.13;33.60;;;;;;;;;;5015595;28;20033;-81
2021/11/22 07:56:19;;;;;;;53.28;31.95;;;;;;;;;;5012443;28;20049;-80
2021/11/22 07:58:45;;;;;;;62.00;34.17;;;;;;;;;;5010767;28;20574;-81
2021/11/22 08:01:11;;;;;;;53.38;33.13;;;;;;;;;;5009979;28;20041;-81
2021/11/22 08:03:37;;;;;;;50.30;30.80;;;;;;;;;;5015129;28;20041;-81
2021/11/22 08:06:03;;;;;;;43.35;26.63;;;;;;;;;;5024392;28;20029;-81
2021/11/22 08:08:32;;;;;;;51.97;30.05;;;;;;;;;;5046747;28;20043;-80
2021/11/22 08:11:29;;;;;;;46.50;28.13;;;;;;;;;;5034995;28;20043;-81
2021/11/22 08:13:52;;;;;;;49.80;30.02;;;;;;;;;;5043367;28;20033;-81
2021/11/22 08:16:18;;;;;;;49.70;29.08;;;;;;;;;;5037387;28;20112;-81
2021/11/22 08:18:44;;;;;;;48.25;29.52;;;;;;;;;;5033779;28;20041;-81
2021/11/22 08:21:12;;;;;;;49.88;28.63;;;;;;;;;;5027719;28;20033;-81
2021/11/22 08:23:38;;;;;;;43.33;27.52;;;;;;;;;;5016762;28;20096;-80
2021/11/22 08:26:04;;;;;;;46.95;27.55;;;;;;;;;;5023773;28;20392;-81
2021/11/22 08:28:30;;;;;;;42.90;27.17;;;;;;;;;;5011753;28;20111;-81
2021/11/22 08:30:56;;;;;;;46.58;27.13;;;;;;;;;;5021587;28;20025;-81
2021/11/22 08:33:22;;;;;;;42.38;25.67;;;;;;;;;;5022948;28;20056;-81
2021/11/22 08:35:49;;;;;;;50.78;30.15;;;;;;;;;;5014662;28;20394;-81
2021/11/22 08:38:15;;;;;;;48.83;28.45;;;;;;;;;;5035252;28;20040;-81
2021/11/22 08:40:42;;;;;;;48.97;27.58;;;;;;;;;;5040311;28;20033;-81
2021/11/22 08:43:10;;;;;;;45.28;27.63;;;;;;;;;;5031367;28;20112;-81
2021/11/22 08:45:37;;;;;;;48.70;28.77;;;;;;;;;;5024978;28;20417;-81
2021/11/22 08:48:03;;;;;;;47.25;26.90;;;;;;;;;;5025301;28;20041;-81
2021/11/22 08:50:29;;;;;;;47.35;27.73;;;;;;;;;;5018386;28;20030;-81
2021/11/22 08:52:56;;;;;;;42.67;26.10;;;;;;;;;;5033655;28;20427;-81
2021/11/22 08:55:22;;;;;;;47.67;27.00;;;;;;;;;;5024051;28;20025;-81
2021/11/22 08:57:48;;;;;;;42.25;27.05;;;;;;;;;;5012420;28;20030;-81
2021/11/22 09:00:17;;;;;;;49.22;26.95;;;;;;;;;;5022077;28;20096;-81
2021/11/22 09:02:43;;;;;;;46.58;27.90;;;;;;;;;;5028972;28;20491;-81
2021/11/22 09:05:09;;;;;;;44.38;27.20;;;;;;;;;;5024132;28;20030;-80
2021/11/22 09:07:35;;;;;;;41.42;25.30;;;;;;;;;;5018682;28;20025;-81
2021/11/22 09:10:01;;;;;;;35.97;22.92;;;;;;;;;;5015139;28;20555;-81
2021/11/22 09:12:27;;;;;;;38.67;24.95;;;;;;;;;;5030619;28;20034;-80
2021/11/22 09:14:54;;;;;;;42.85;24.30;;;;;;;;;;5016131;28;20068;-81
2021/11/22 09:17:20;;;;;;;44.47;26.85;;;;;;;;;;5025716;28;20034;-80
2021/11/22 09:19:46;;;;;;;32.85;20.50;;;;;;;;;;5026388;28;20108;-81
2021/11/22 09:22:13;;;;;;;36.85;23.67;;;;;;;;;;5029684;28;20115;-80
2021/11/22 09:24:40;;;;;;;32.88;22.92;;;;;;;;;;5027010;28;20049;-81
2021/11/22 09:27:07;;;;;;;28.70;19.50;;;;;;;;;;5016579;28;20547;-81
2021/11/22 09:29:33;;;;;;;37.17;22.52;;;;;;;;;;5018265;28;20042;-80
2021/11/22 09:32:00;;;;;;;29.08;18.90;;;;;;;;;;5026828;28;20765;-81
2021/11/22 09:34:26;;;;;;;31.35;21.08;;;;;;;;;;5031409;28;20041;-81
2021/11/22 09:36:52;;;;;;;31.00;19.30;;;;;;;;;;5020840;28;20034;-81
2021/11/22 09:39:18;;;;;;;27.10;18.65;;;;;;;;;;5024837;28;20054;-81
2021/11/22 09:41:47;;;;;;;26.55;17.20;;;;;;;;;;5019131;28;20034;-80
2021/11/22 09:44:14;;;;;;;28.35;17.50;;;;;;;;;;5023705;28;20021;-81
2021/11/22 09:46:40;;;;;;;27.95;17.38;;;;;;;;;;5015952;28;20544;-81
2021/11/22 09:49:06;;;;;;;30.42;20.67;;;;;;;;;;5018246;28;20065;-80
2021/11/22 09:51:32;;;;;;;32.00;20.13;;;;;;;;;;5019281;28;20065;-81
2021/11/22 09:53:58;;;;;;;31.08;19.00;;;;;;;;;;5017925;28;20515;-81
2021/11/22 09:56:25;;;;;;;29.33;18.17;;;;;;;;;;5020960;28;20147;-81
2021/11/22 09:58:51;;;;;;;27.08;18.92;;;;;;;;;;5025189;28;20041;-81
2021/11/22 10:01:17;;;;;;;28.08;20.30;;;;;;;;;;5021050;28;20033;-81
2021/11/22 10:04:00;;;;;;;28.50;18.77;;;;;;;;;;5035024;28;20033;-81
2021/11/22 10:06:27;;;;;;;27.50;18.33;;;;;;;;;;5039860;28;20395;-81
2021/11/22 10:08:53;;;;;;;28.00;19.65;;;;;;;;;;5047926;28;20463;-81
2021/11/22 10:11:19;;;;;;;29.85;20.02;;;;;;;;;;5020190;28;20069;-81
2021/11/22 10:13:46;;;;;;;29.88;17.58;;;;;;;;;;5050087;28;20025;-81
2021/11/22 10:16:12;;;;;;;25.35;17.58;;;;;;;;;;5024818;28;20038;-82
2021/11/22 10:18:41;;;;;;;28.27;18.45;;;;;;;;;;5017605;28;20044;-82
2021/11/22 10:21:08;;;;;;;26.38;17.60;;;;;;;;;;5029338;28;20046;-81
2021/11/22 10:23:36;;;;;;;24.30;16.63;;;;;;;;;;5041381;28;20838;-81
2021/11/22 10:26:03;;;;;;;23.65;16.17;;;;;;;;;;5044263;28;20037;-81
2021/11/22 10:28:31;;;;;;;25.52;18.08;;;;;;;;;;5034514;28;20463;-81
2021/11/22 10:30:59;;;;;;;22.27;16.27;;;;;;;;;;5014655;28;21011;-81
2021/11/22 10:33:26;;;;;;;24.05;14.88;;;;;;;;;;5030910;28;20031;-81
2021/11/22 10:35:53;;;;;;;23.23;14.95;;;;;;;;;;5026767;28;20018;-81
2021/11/22 10:38:21;;;;;;;20.30;15.02;;;;;;;;;;5019772;28;20116;-81
2021/11/22 10:40:53;;;;;;;23.25;14.27;;;;;;;;;;5021459;28;20088;-81
2021/11/22 10:43:19;;;;;;;20.95;12.57;;;;;;;;;;5033490;28;20024;-81
2021/11/22 10:45:47;;;;;;;24.35;13.93;;;;;;;;;;5024691;28;20708;-82
2021/11/22 10:48:25;;;;;;;22.52;14.50;;;;;;;;;;5027451;28;20037;-81
2021/11/22 10:51:01;;;;;;;17.95;13.15;;;;;;;;;;5029361;28;20041;-82
2021/11/22 10:53:28;;;;;;;20.40;12.70;;;;;;;;;;5022181;28;20048;-81
2021/11/22 10:55:54;;;;;;;20.38;12.98;;;;;;;;;;5015254;28;20085;-81
2021/11/22 10:58:53;;;;;;;19.83;12.02;;;;;;;;;;5011173;28;20124;-82
2021/11/22 11:01:24;;;;;;;19.98;12.88;;;;;;;;;;4999128;28;20076;-81
2021/11/22 11:03:51;;;;;;;19.67;13.73;;;;;;;;;;5011037;28;20045;-80
2021/11/22 11:06:18;;;;;;;24.50;13.50;;;;;;;;;;5013894;28;20479;-80
2021/11/22 11:08:45;;;;;;;19.25;12.27;;;;;;;;;;5019398;28;20133;-80
2021/11/22 11:11:15;;;;;;;22.88;13.13;;;;;;;;;;5026329;28;20029;-81
2021/11/22 11:13:42;;;;;;;25.60;15.20;;;;;;;;;;5031400;28;20046;-80
2021/11/22 11:16:09;;;;;;;19.05;13.07;;;;;;;;;;5021308;28;20029;-81
2021/11/22 11:18:35;;;;;;;18.67;12.20;;;;;;;;;;5013581;28;20099;-82
2021/11/22 11:21:01;;;;;;;17.20;11.30;;;;;;;;;;5015199;28;20042;-81
2021/11/22 11:23:28;;;;;;;22.20;12.95;;;;;;;;;;5021470;28;20091;-82
2021/11/22 11:25:54;;;;;;;19.73;11.48;;;;;;;;;;5016270;28;20025;-84
2021/11/22 11:28:20;;;;;;;21.98;14.00;;;;;;;;;;5020083;28;20724;-82
2021/11/22 11:30:46;;;;;;;19.40;11.90;;;;;;;;;;5027833;28;20068;-78
2021/11/22 11:33:13;;;;;;;19.02;11.25;;;;;;;;;;5022740;28;20034;-78
2021/11/22 11:35:44;;;;;;;23.75;12.65;;;;;;;;;;5018113;28;20141;-79
2021/11/22 11:38:10;;;;;;;19.97;10.97;;;;;;;;;;5020576;28;20045;-78
2021/11/22 11:41:08;;;;;;;24.88;13.60;;;;;;;;;;5017995;28;20376;-78
2021/11/22 11:43:43;;;;;;;21.05;10.93;;;;;;;;;;5011672;28;20370;-77
2021/11/22 11:46:11;;;;;;;18.23;10.93;;;;;;;;;;5037502;28;20311;-77
2021/11/22 11:48:55;;;;;;;21.00;12.95;;;;;;;;;;5019435;28;20117;-77
2021/11/22 11:51:22;;;;;;;19.60;11.55;;;;;;;;;;5015359;28;20037;-77
2021/11/22 11:54:05;;;;;;;18.00;11.13;;;;;;;;;;5014105;28;20083;-76
2021/11/22 11:56:31;;;;;;;19.90;11.98;;;;;;;;;;5029616;28;20030;-75
2021/11/22 11:59:18;;;;;;;19.20;11.80;;;;;;;;;;5035024;28;20156;-75
2021/11/22 12:01:55;;;;;;;20.73;12.25;;;;;;;;;;5022111;28;20468;-75
2021/11/22 12:04:21;;;;;;;20.17;12.50;;;;;;;;;;5024255;28;20029;-75
2021/11/22 12:06:57;;;;;;;21.48;12.57;;;;;;;;;;5022361;28;20454;-75
2021/11/22 12:09:27;;;;;;;22.15;13.18;;;;;;;;;;5009458;28;20793;-75
2021/11/22 12:11:53;;;;;;;18.92;11.52;;;;;;;;;;5015128;28;20029;-75
2021/11/22 12:14:47;;;;;;;19.50;11.32;;;;;;;;;;5036782;28;20080;-75
2021/11/22 12:17:33;;;;;;;21.10;12.77;;;;;;;;;;5012424;28;20030;-75
2021/11/22 12:20:06;;;;;;;21.33;12.77;;;;;;;;;;5032082;28;20045;-75
2021/11/22 12:22:40;;;;;;;18.80;11.15;;;;;;;;;;5011990;28;20026;-75
2021/11/22 12:25:08;;;;;;;21.33;12.60;;;;;;;;;;5028616;28;20174;-75
2021/11/22 12:27:34;;;;;;;16.90;11.63;;;;;;;;;;5027002;28;20113;-75
2021/11/22 12:30:20;;;;;;;20.83;12.20;;;;;;;;;;5017384;28;20053;-75
2021/11/22 12:32:46;;;;;;;19.42;12.45;;;;;;;;;;5015175;28;20383;-75
2021/11/22 12:35:12;;;;;;;22.35;13.10;;;;;;;;;;5020062;28;20033;-75
2021/11/22 12:37:38;;;;;;;18.67;11.23;;;;;;;;;;5014826;28;20450;-76
2021/11/22 12:40:17;;;;;;;18.48;11.90;;;;;;;;;;5027876;28;20134;-75
2021/11/22 12:42:47;;;;;;;19.70;12.02;;;;;;;;;;5040456;28;20052;-75
2021/11/22 12:45:13;;;;;;;18.17;10.95;;;;;;;;;;5017071;28;20029;-75
2021/11/22 12:47:39;;;;;;;20.27;11.90;;;;;;;;;;5027118;28;20204;-75
2021/11/22 12:50:13;;;;;;;20.45;12.30;;;;;;;;;;5024501;28;20436;-75
2021/11/22 12:52:40;;;;;;;20.77;12.20;;;;;;;;;;5027385;28;20479;-75
2021/11/22 12:55:17;;;;;;;18.35;10.90;;;;;;;;;;5030802;28;20115;-76
2021/11/22 12:57:47;;;;;;;18.75;10.90;;;;;;;;;;5035533;28;20530;-75
2021/11/22 13:00:16;;;;;;;18.55;11.55;;;;;;;;;;5025695;28;20802;-75
2021/11/22 13:02:51;;;;;;;20.63;11.07;;;;;;;;;;5037422;28;20026;-75
2021/11/22 13:05:36;;;;;;;21.40;10.77;;;;;;;;;;5026621;28;20033;-75
2021/11/22 13:08:02;;;;;;;20.45;11.20;;;;;;;;;;5027632;28;20056;-75
2021/11/22 13:10:52;;;;;;;20.50;12.13;;;;;;;;;;5017481;28;20109;-75
2021/11/22 13:15:54;;;;;;;;;;;;;;;;;;5038134;28;20074;-75
2021/11/22 13:18:21;;;;;;;19.42;11.60;;;;;;;;;;5027717;28;19928;-75
2021/11/22 13:20:47;;;;;;;19.65;11.57;;;;;;;;;;5018056;28;20029;-76
2021/11/22 13:23:14;;;;;;;20.92;10.80;;;;;;;;;;5032232;28;20041;-75
2021/11/22 13:25:40;;;;;;;18.33;9.50;;;;;;;;;;5033189;28;20040;-76
2021/11/22 13:28:07;;;;;;;22.35;11.35;;;;;;;;;;5035334;28;20041;-75
2021/11/22 13:30:34;;;;;;;16.67;10.48;;;;;;;;;;5037743;28;20112;-75
2021/11/22 13:33:00;;;;;;;17.13;9.95;;;;;;;;;;5037330;28;20168;-76
2021/11/22 13:35:26;;;;;;;19.95;11.60;;;;;;;;;;5025620;28;20025;-76
2021/11/22 13:38:13;;;;;;;21.10;9.90;;;;;;;;;;5015651;28;20036;-75
2021/11/22 13:40:40;;;;;;;13.85;9.20;;;;;;;;;;5029124;28;20037;-76
2021/11/22 13:43:07;;;;;;;19.20;10.57;;;;;;;;;;5033167;28;20034;-76
2021/11/22 13:45:33;;;;;;;16.00;9.82;;;;;;;;;;5019413;28;20022;-76
2021/11/22 13:47:59;;;;;;;19.25;9.40;;;;;;;;;;5015724;28;20139;-75
2021/11/22 13:50:27;;;;;;;17.55;9.50;;;;;;;;;;5022899;28;20029;-76
2021/11/22 13:52:53;;;;;;;17.05;9.90;;;;;;;;;;5014028;28;20022;-76
2021/11/22 13:55:19;;;;;;;17.15;9.05;;;;;;;;;;5015316;28;20494;-76
2021/11/22 13:57:45;;;;;;;15.10;8.82;;;;;;;;;;5023366;28;20026;-75
2021/11/22 14:00:11;;;;;;;16.33;10.07;;;;;;;;;;5021949;28;20028;-76
2021/11/22 14:02:37;;;;;;;16.77;8.82;;;;;;;;;;5012718;28;20033;-76
2021/11/22 14:05:04;;;;;;;14.82;8.95;;;;;;;;;;5021397;28;20671;-75
2021/11/22 14:07:43;;;;;;;20.98;8.95;;;;;;;;;;5016630;28;20029;-76
2021/11/22 14:10:10;;;;;;;17.80;9.60;;;;;;;;;;5021507;28;20541;-76
2021/11/22 14:12:37;;;;;;;18.65;9.45;;;;;;;;;;5019915;28;20472;-76
2021/11/22 14:15:04;;;;;;;14.40;8.45;;;;;;;;;;5022449;28;20025;-76
2021/11/22 14:17:33;;;;;;;14.52;8.68;;;;;;;;;;5015366;28;20073;-75
2021/11/22 14:20:05;;;;;;;12.70;8.05;;;;;;;;;;5017773;28;20034;-76
2021/11/22 14:22:39;;;;;;;15.57;8.50;;;;;;;;;;5023013;28;20537;-76